createdAt,value
2017-11-06T00:00:09.842Z,0
2017-11-06T00:01:17.929Z,0
2017-11-06T00:02:26.016Z,0
2017-11-06T00:03:34.109Z,0
2017-11-06T00:04:42.197Z,0
2017-11-06T00:05:50.290Z,0
2017-11-06T00:06:58.369Z,0
2017-11-06T00:08:06.456Z,0
2017-11-06T00:09:14.545Z,0
2017-11-06T00:10:22.634Z,0
2017-11-06T00:11:30.718Z,0
2017-11-06T00:12:38.808Z,0
2017-11-06T00:13:46.902Z,0
2017-11-06T00:14:54.984Z,0
2017-11-06T00:16:03.075Z,0
2017-11-06T00:17:11.155Z,0
2017-11-06T00:18:19.242Z,0
2017-11-06T00:19:27.328Z,0
2017-11-06T00:20:35.414Z,0
2017-11-06T00:21:43.503Z,0
2017-11-06T00:22:51.591Z,0
2017-11-06T00:23:59.685Z,0
2017-11-06T00:25:07.958Z,0
2017-11-06T00:26:16.061Z,0
2017-11-06T00:27:24.143Z,0
2017-11-06T00:28:32.229Z,0
2017-11-06T00:29:40.316Z,0
2017-11-06T00:30:48.402Z,0
2017-11-06T00:31:56.490Z,0
2017-11-06T00:33:04.576Z,0
2017-11-06T00:34:12.662Z,0
2017-11-06T00:35:20.762Z,0
2017-11-06T00:36:28.838Z,0
2017-11-06T00:37:36.926Z,0
2017-11-06T00:38:45.025Z,0
2017-11-06T00:39:53.105Z,0
2017-11-06T00:41:01.193Z,0
2017-11-06T00:42:09.279Z,0
2017-11-06T00:43:17.373Z,0
2017-11-06T00:44:25.455Z,0
2017-11-06T00:45:33.541Z,0
2017-11-06T00:46:41.630Z,0
2017-11-06T00:47:49.715Z,0
2017-11-06T00:48:57.801Z,0
2017-11-06T00:50:05.888Z,0
2017-11-06T00:51:13.975Z,0
2017-11-06T00:52:22.062Z,0
2017-11-06T00:53:30.150Z,0
2017-11-06T00:54:38.238Z,0
2017-11-06T00:55:46.325Z,0
2017-11-06T00:56:54.411Z,0
2017-11-06T00:58:02.504Z,0
2017-11-06T00:59:10.586Z,0
2017-11-06T01:00:18.681Z,0
2017-11-06T01:01:26.783Z,0
2017-11-06T01:02:34.868Z,0
2017-11-06T01:03:42.961Z,0
2017-11-06T01:04:51.066Z,0
2017-11-06T01:05:59.135Z,0
2017-11-06T01:07:07.234Z,0
2017-11-06T01:08:15.309Z,0
2017-11-06T01:09:23.399Z,0
2017-11-06T01:10:31.485Z,0
2017-11-06T01:11:39.570Z,0
2017-11-06T01:12:47.657Z,0
2017-11-06T01:13:55.753Z,0
2017-11-06T01:15:03.833Z,0
2017-11-06T01:16:11.915Z,0
2017-11-06T01:17:20.003Z,0
2017-11-06T01:18:28.095Z,0
2017-11-06T01:19:36.190Z,0
2017-11-06T01:20:44.270Z,0
2017-11-06T01:21:52.362Z,0
2017-11-06T01:23:00.448Z,0
2017-11-06T01:24:08.537Z,0
2017-11-06T01:25:16.623Z,0
2017-11-06T01:26:24.710Z,0
2017-11-06T01:27:32.794Z,0
2017-11-06T01:28:40.883Z,0
2017-11-06T01:29:48.967Z,0
2017-11-06T01:30:57.055Z,0
2017-11-06T01:32:05.157Z,0
2017-11-06T01:33:13.226Z,0
2017-11-06T01:34:21.316Z,0
2017-11-06T01:35:29.400Z,0
2017-11-06T01:36:37.491Z,0
2017-11-06T01:37:45.575Z,0
2017-11-06T01:38:54.072Z,0
2017-11-06T01:40:01.750Z,0
2017-11-06T01:41:09.838Z,0
2017-11-06T01:42:17.924Z,0
2017-11-06T01:43:26.011Z,0
2017-11-06T01:44:34.098Z,0
2017-11-06T01:45:42.182Z,0
2017-11-06T01:46:50.270Z,0
2017-11-06T01:47:58.357Z,0
2017-11-06T01:49:06.445Z,0
2017-11-06T01:50:14.527Z,0
2017-11-06T01:51:22.616Z,0
2017-11-06T01:52:30.718Z,0
2017-11-06T01:53:38.791Z,0
2017-11-06T01:54:46.878Z,0
2017-11-06T01:55:54.963Z,0
2017-11-06T01:57:03.049Z,0
2017-11-06T01:58:11.142Z,0
2017-11-06T01:59:19.220Z,0
2017-11-06T02:00:27.306Z,0
2017-11-06T02:01:35.493Z,0
2017-11-06T02:02:43.489Z,0
2017-11-06T02:03:51.575Z,0
2017-11-06T02:04:59.670Z,0
2017-11-06T02:06:07.753Z,0
2017-11-06T02:07:15.831Z,0
2017-11-06T02:08:23.919Z,0
2017-11-06T02:09:32.023Z,0
2017-11-06T02:10:40.090Z,0
2017-11-06T02:11:48.180Z,0
2017-11-06T02:12:56.266Z,0
2017-11-06T02:14:04.353Z,0
2017-11-06T02:15:12.438Z,0
2017-11-06T02:16:20.526Z,0
2017-11-06T02:17:28.610Z,0
2017-11-06T02:18:36.694Z,0
2017-11-06T02:19:45.054Z,0
2017-11-06T02:20:52.868Z,0
2017-11-06T02:22:00.955Z,0
2017-11-06T02:23:09.042Z,0
2017-11-06T02:24:17.197Z,0
2017-11-06T02:25:25.213Z,0
2017-11-06T02:26:33.299Z,0
2017-11-06T02:27:41.383Z,0
2017-11-06T02:28:49.469Z,0
2017-11-06T02:29:57.554Z,0
2017-11-06T02:31:05.642Z,0
2017-11-06T02:32:13.730Z,0
2017-11-06T02:33:21.826Z,0
2017-11-06T02:34:29.921Z,0
2017-11-06T02:35:38.015Z,0
2017-11-06T02:36:46.092Z,0
2017-11-06T02:37:54.173Z,0
2017-11-06T02:39:02.260Z,0
2017-11-06T02:40:10.354Z,0
2017-11-06T02:41:18.448Z,0
2017-11-06T02:42:26.534Z,0
2017-11-06T02:43:34.623Z,0
2017-11-06T02:44:42.708Z,0
2017-11-06T02:45:50.811Z,0
2017-11-06T02:46:58.912Z,0
2017-11-06T02:48:06.966Z,0
2017-11-06T02:49:15.054Z,0
2017-11-06T02:50:23.138Z,0
2017-11-06T02:51:31.224Z,0
2017-11-06T02:52:39.321Z,0
2017-11-06T02:53:47.398Z,0
2017-11-06T02:54:55.492Z,0
2017-11-06T02:56:03.578Z,0
2017-11-06T02:57:11.661Z,0
2017-11-06T02:58:19.750Z,0
2017-11-06T02:59:27.837Z,0
2017-11-06T03:00:35.922Z,0
2017-11-06T03:01:44.007Z,0
2017-11-06T03:02:52.097Z,0
2017-11-06T03:04:00.180Z,0
2017-11-06T03:05:08.266Z,0
2017-11-06T03:06:16.353Z,0
2017-11-06T03:07:24.437Z,0
2017-11-06T03:08:32.525Z,0
2017-11-06T03:09:40.611Z,0
2017-11-06T03:10:48.701Z,0
2017-11-06T03:11:56.785Z,0
2017-11-06T03:13:04.894Z,0
2017-11-06T03:14:12.975Z,0
2017-11-06T03:15:21.044Z,0
2017-11-06T03:16:29.130Z,0
2017-11-06T03:17:37.235Z,0
2017-11-06T03:18:45.301Z,0
2017-11-06T03:19:53.387Z,0
2017-11-06T03:21:01.471Z,0
2017-11-06T03:22:09.558Z,0
2017-11-06T03:23:17.646Z,0
2017-11-06T03:24:25.729Z,0
2017-11-06T03:25:33.834Z,0
2017-11-06T03:26:41.901Z,0
2017-11-06T03:27:49.986Z,0
2017-11-06T03:28:58.075Z,0
2017-11-06T03:30:06.166Z,0
2017-11-06T03:31:14.247Z,0
2017-11-06T03:32:22.334Z,0
2017-11-06T03:33:30.422Z,0
2017-11-06T03:34:38.517Z,0
2017-11-06T03:35:46.594Z,0
2017-11-06T03:36:54.681Z,0
2017-11-06T03:38:02.770Z,0
2017-11-06T03:39:10.873Z,0
2017-11-06T03:40:18.937Z,0
2017-11-06T03:41:27.039Z,0
2017-11-06T03:42:35.134Z,0
2017-11-06T03:43:43.227Z,0
2017-11-06T03:44:51.310Z,0
2017-11-06T03:45:59.392Z,0
2017-11-06T03:47:07.478Z,0
2017-11-06T03:48:15.563Z,0
2017-11-06T03:49:23.653Z,0
2017-11-06T03:50:31.740Z,0
2017-11-06T03:51:39.821Z,0
2017-11-06T03:52:47.908Z,0
2017-11-06T03:53:55.999Z,0
2017-11-06T03:55:04.079Z,0
2017-11-06T03:56:12.166Z,0
2017-11-06T03:57:20.252Z,0
2017-11-06T03:58:28.336Z,0
2017-11-06T03:59:36.420Z,0
2017-11-06T04:00:44.504Z,0
2017-11-06T04:01:52.599Z,0
2017-11-06T04:03:00.685Z,0
2017-11-06T04:04:08.790Z,0
2017-11-06T04:05:16.853Z,0
2017-11-06T04:06:24.945Z,0
2017-11-06T04:07:33.030Z,0
2017-11-06T04:08:41.109Z,0
2017-11-06T04:09:49.196Z,0
2017-11-06T04:10:57.281Z,0
2017-11-06T04:12:05.376Z,0
2017-11-06T04:13:13.452Z,0
2017-11-06T04:14:21.537Z,0
2017-11-06T04:15:29.678Z,0
2017-11-06T04:16:37.709Z,0
2017-11-06T04:17:45.815Z,0
2017-11-06T04:18:53.886Z,0
2017-11-06T04:20:01.966Z,0
2017-11-06T04:21:10.051Z,0
2017-11-06T04:22:18.134Z,0
2017-11-06T04:23:26.223Z,0
2017-11-06T04:24:34.307Z,0
2017-11-06T04:25:42.393Z,0
2017-11-06T04:26:50.480Z,0
2017-11-06T04:27:58.562Z,0
2017-11-06T04:29:06.666Z,0
2017-11-06T04:30:14.748Z,0
2017-11-06T04:31:22.818Z,0
2017-11-06T04:32:30.903Z,0
2017-11-06T04:33:38.994Z,0
2017-11-06T04:34:47.076Z,0
2017-11-06T04:35:55.160Z,0
2017-11-06T04:37:03.470Z,0
2017-11-06T04:38:11.567Z,0
2017-11-06T04:39:19.642Z,0
2017-11-06T04:40:27.730Z,0
2017-11-06T04:41:35.817Z,0
2017-11-06T04:42:43.899Z,0
2017-11-06T04:43:52.006Z,0
2017-11-06T04:45:00.069Z,0
2017-11-06T04:46:08.155Z,0
2017-11-06T04:47:16.239Z,0
2017-11-06T04:48:24.334Z,0
2017-11-06T04:49:32.411Z,0
2017-11-06T04:50:40.498Z,0
2017-11-06T04:51:48.581Z,0
2017-11-06T04:52:56.668Z,0
2017-11-06T04:54:04.756Z,0
2017-11-06T04:55:12.851Z,0
2017-11-06T04:56:20.972Z,0
2017-11-06T04:57:29.013Z,0
2017-11-06T04:58:37.099Z,0
2017-11-06T04:59:45.184Z,0
2017-11-06T05:00:53.270Z,0
2017-11-06T05:02:01.354Z,0
2017-11-06T05:03:09.445Z,0
2017-11-06T05:04:17.523Z,0
2017-11-06T05:05:25.609Z,0
2017-11-06T05:06:33.693Z,0
2017-11-06T05:07:41.778Z,0
2017-11-06T05:08:49.865Z,0
2017-11-06T05:09:57.957Z,0
2017-11-06T05:11:06.106Z,0
2017-11-06T05:12:14.125Z,0
2017-11-06T05:13:22.221Z,0
2017-11-06T05:14:30.300Z,0
2017-11-06T05:15:38.387Z,0
2017-11-06T05:16:46.469Z,0
2017-11-06T05:17:54.556Z,0
2017-11-06T05:19:02.659Z,0
2017-11-06T05:20:10.725Z,0
2017-11-06T05:21:18.809Z,0
2017-11-06T05:22:26.895Z,0
2017-11-06T05:23:34.983Z,0
2017-11-06T05:24:43.064Z,0
2017-11-06T05:25:51.151Z,0
2017-11-06T05:26:59.243Z,0
2017-11-06T05:28:07.328Z,0
2017-11-06T05:29:15.410Z,0
2017-11-06T05:30:23.497Z,0
2017-11-06T05:31:31.584Z,0
2017-11-06T05:32:39.669Z,0
2017-11-06T05:33:47.799Z,0
2017-11-06T05:34:55.861Z,0
2017-11-06T05:36:03.923Z,0
2017-11-06T05:37:12.016Z,0
2017-11-06T05:38:20.101Z,0
2017-11-06T05:39:28.177Z,0
2017-11-06T05:40:36.264Z,0
2017-11-06T05:41:44.349Z,0
2017-11-06T05:42:52.433Z,0
2017-11-06T05:44:00.515Z,0
2017-11-06T05:45:08.604Z,0
2017-11-06T05:46:16.693Z,0
2017-11-06T05:47:24.782Z,0
2017-11-06T05:48:32.867Z,0
2017-11-06T05:49:41.015Z,0
2017-11-06T05:50:49.050Z,0
2017-11-06T05:51:57.143Z,0
2017-11-06T05:53:05.221Z,0
2017-11-06T05:54:13.304Z,0
2017-11-06T05:55:21.388Z,0
2017-11-06T05:56:29.477Z,0
2017-11-06T05:57:37.561Z,0
2017-11-06T05:58:45.648Z,0
2017-11-06T05:59:53.734Z,0
2017-11-06T06:01:01.817Z,0
2017-11-06T06:02:10.039Z,0
2017-11-06T06:03:17.987Z,0
2017-11-06T06:04:26.080Z,0
2017-11-06T06:05:34.158Z,0
2017-11-06T06:06:42.242Z,0
2017-11-06T06:07:50.329Z,0
2017-11-06T06:08:58.413Z,0
2017-11-06T06:10:06.499Z,0
2017-11-06T06:11:14.594Z,0
2017-11-06T06:12:22.677Z,0
2017-11-06T06:13:30.756Z,0
2017-11-06T06:14:38.840Z,0
2017-11-06T06:15:46.924Z,0
2017-11-06T06:16:55.014Z,0
2017-11-06T06:18:03.101Z,0
2017-11-06T06:19:11.185Z,0
2017-11-06T06:20:19.272Z,0
2017-11-06T06:21:27.361Z,0
2017-11-06T06:22:35.446Z,0
2017-11-06T06:23:43.530Z,0
2017-11-06T06:24:51.618Z,0
2017-11-06T06:25:59.704Z,0
2017-11-06T06:27:07.791Z,0
2017-11-06T06:28:16.245Z,4
2017-11-06T06:29:24.332Z,0
2017-11-06T06:30:32.418Z,0
2017-11-06T06:31:40.504Z,0
2017-11-06T06:32:48.590Z,0
2017-11-06T06:33:56.676Z,0
2017-11-06T06:35:04.761Z,4
2017-11-06T06:36:12.852Z,4
2017-11-06T06:37:20.954Z,4
2017-11-06T06:38:29.023Z,4
2017-11-06T06:39:37.109Z,4
2017-11-06T06:40:45.193Z,4
2017-11-06T06:41:53.278Z,4
2017-11-06T06:43:01.370Z,4
2017-11-06T06:44:09.468Z,4
2017-11-06T06:45:17.538Z,4
2017-11-06T06:46:25.625Z,4
2017-11-06T06:47:33.712Z,0
2017-11-06T06:48:41.802Z,0
2017-11-06T06:49:49.903Z,4
2017-11-06T06:50:57.968Z,4
2017-11-06T06:52:06.081Z,4
2017-11-06T06:53:14.138Z,4
2017-11-06T06:54:22.222Z,0
2017-11-06T06:55:30.308Z,4
2017-11-06T06:56:38.394Z,4
2017-11-06T06:57:46.484Z,0
2017-11-06T06:58:54.574Z,4
2017-11-06T07:00:02.658Z,8
2017-11-06T07:01:10.908Z,4
2017-11-06T07:02:18.827Z,8
2017-11-06T07:03:26.910Z,4
2017-11-06T07:04:35.008Z,4
2017-11-06T07:05:43.200Z,8
2017-11-06T07:06:51.254Z,8
2017-11-06T07:07:59.338Z,8
2017-11-06T07:09:07.424Z,8
2017-11-06T07:10:15.511Z,8
2017-11-06T07:11:23.599Z,8
2017-11-06T07:12:31.679Z,8
2017-11-06T07:13:39.765Z,4
2017-11-06T07:14:47.858Z,4
2017-11-06T07:15:55.937Z,4
2017-11-06T07:17:04.024Z,8
2017-11-06T07:18:12.107Z,8
2017-11-06T07:19:20.211Z,8
2017-11-06T07:20:28.280Z,8
2017-11-06T07:21:36.388Z,8
2017-11-06T07:22:44.446Z,4
2017-11-06T07:23:52.535Z,8
2017-11-06T07:25:00.879Z,4
2017-11-06T07:26:08.719Z,8
2017-11-06T07:27:16.828Z,8
2017-11-06T07:28:24.875Z,8
2017-11-06T07:29:32.961Z,8
2017-11-06T07:30:41.044Z,8
2017-11-06T07:31:49.132Z,8
2017-11-06T07:32:57.214Z,8
2017-11-06T07:34:05.301Z,8
2017-11-06T07:35:13.391Z,8
2017-11-06T07:36:21.473Z,8
2017-11-06T07:37:29.556Z,8
2017-11-06T07:38:37.664Z,8
2017-11-06T07:39:45.729Z,8
2017-11-06T07:40:53.817Z,8
2017-11-06T07:42:01.905Z,8
2017-11-06T07:43:09.984Z,8
2017-11-06T07:44:18.072Z,4
2017-11-06T07:45:26.164Z,8
2017-11-06T07:46:34.249Z,8
2017-11-06T07:47:42.334Z,4
2017-11-06T07:48:50.425Z,8
2017-11-06T07:49:58.503Z,8
2017-11-06T07:51:06.597Z,8
2017-11-06T07:52:14.688Z,8
2017-11-06T07:53:22.768Z,8
2017-11-06T07:54:30.864Z,12
2017-11-06T07:55:38.939Z,8
2017-11-06T07:56:47.023Z,12
2017-11-06T07:57:55.120Z,12
2017-11-06T07:59:03.194Z,8
2017-11-06T08:00:11.280Z,12
2017-11-06T08:01:19.367Z,8
2017-11-06T08:02:27.454Z,8
2017-11-06T08:03:35.539Z,8
2017-11-06T08:04:43.625Z,8
2017-11-06T08:05:51.727Z,8
2017-11-06T08:06:59.796Z,8
2017-11-06T08:08:07.884Z,8
2017-11-06T08:09:15.969Z,8
2017-11-06T08:10:24.052Z,8
2017-11-06T08:11:32.137Z,8
2017-11-06T08:12:40.222Z,8
2017-11-06T08:13:48.390Z,8
2017-11-06T08:14:56.395Z,8
2017-11-06T08:16:04.486Z,8
2017-11-06T08:17:12.561Z,8
2017-11-06T08:18:20.662Z,8
2017-11-06T08:19:28.744Z,8
2017-11-06T08:20:36.819Z,12
2017-11-06T08:21:44.906Z,16
2017-11-06T08:22:52.988Z,20
2017-11-06T08:24:01.080Z,20
2017-11-06T08:25:09.161Z,24
2017-11-06T08:26:17.246Z,20
2017-11-06T08:27:25.336Z,24
2017-11-06T08:28:33.416Z,24
2017-11-06T08:29:41.502Z,28
2017-11-06T08:30:49.600Z,24
2017-11-06T08:31:57.690Z,24
2017-11-06T08:33:05.780Z,24
2017-11-06T08:34:13.861Z,28
2017-11-06T08:35:21.952Z,24
2017-11-06T08:36:30.176Z,24
2017-11-06T08:37:38.254Z,20
2017-11-06T08:38:46.338Z,24
2017-11-06T08:39:54.423Z,20
2017-11-06T08:41:02.507Z,20
2017-11-06T08:42:10.594Z,20
2017-11-06T08:43:18.681Z,16
2017-11-06T08:44:26.765Z,16
2017-11-06T08:45:34.850Z,20
2017-11-06T08:46:42.940Z,20
2017-11-06T08:47:51.018Z,20
2017-11-06T08:48:59.107Z,20
2017-11-06T08:50:07.195Z,24
2017-11-06T08:51:15.276Z,20
2017-11-06T08:52:23.361Z,20
2017-11-06T08:53:31.443Z,20
2017-11-06T08:54:39.548Z,20
2017-11-06T08:55:47.625Z,16
2017-11-06T08:56:55.713Z,20
2017-11-06T08:58:03.824Z,16
2017-11-06T08:59:11.885Z,20
2017-11-06T09:00:19.969Z,20
2017-11-06T09:01:28.055Z,20
2017-11-06T09:02:36.140Z,16
2017-11-06T09:03:44.229Z,20
2017-11-06T09:04:52.312Z,20
2017-11-06T09:06:00.400Z,20
2017-11-06T09:07:08.485Z,20
2017-11-06T09:08:16.570Z,20
2017-11-06T09:09:24.658Z,16
2017-11-06T09:10:32.755Z,16
2017-11-06T09:11:40.824Z,16
2017-11-06T09:12:48.928Z,12.00
2017-11-06T09:13:56.993Z,12
2017-11-06T09:15:05.080Z,12
2017-11-06T09:16:13.166Z,8
2017-11-06T09:17:21.253Z,8
2017-11-06T09:18:29.431Z,8
2017-11-06T09:19:37.437Z,8
2017-11-06T09:20:45.522Z,12
2017-11-06T09:21:53.606Z,12
2017-11-06T09:23:01.694Z,8
2017-11-06T09:24:09.779Z,12
2017-11-06T09:25:17.868Z,8
2017-11-06T09:26:25.949Z,12
2017-11-06T09:27:34.032Z,12
2017-11-06T09:28:42.392Z,8
2017-11-06T09:29:50.478Z,12
2017-11-06T09:30:58.564Z,8
2017-11-06T09:32:06.649Z,12
2017-11-06T09:33:14.753Z,12
2017-11-06T09:34:23.233Z,12
2017-11-06T09:35:30.905Z,12
2017-11-06T09:36:38.989Z,8
2017-11-06T09:37:47.075Z,12
2017-11-06T09:38:55.160Z,8
2017-11-06T09:40:03.243Z,8
2017-11-06T09:41:11.333Z,12
2017-11-06T09:42:19.414Z,8
2017-11-06T09:43:27.504Z,12
2017-11-06T09:44:35.586Z,8
2017-11-06T09:45:43.675Z,12
2017-11-06T09:46:51.760Z,12
2017-11-06T09:47:59.841Z,12
2017-11-06T09:49:07.923Z,12
2017-11-06T09:50:16.028Z,12
2017-11-06T09:51:24.094Z,12
2017-11-06T09:52:32.179Z,12
2017-11-06T09:53:40.261Z,12
2017-11-06T09:54:48.350Z,8
2017-11-06T09:55:56.434Z,12
2017-11-06T09:57:04.518Z,12
2017-11-06T09:58:12.604Z,12
2017-11-06T09:59:20.690Z,12
2017-11-06T10:00:28.779Z,12
2017-11-06T10:01:36.879Z,16
2017-11-06T10:02:44.948Z,20
2017-11-06T10:03:53.036Z,20
2017-11-06T10:05:01.300Z,20
2017-11-06T10:06:09.209Z,20
2017-11-06T10:07:17.290Z,16
2017-11-06T10:08:25.382Z,20
2017-11-06T10:09:33.465Z,16
2017-11-06T10:10:41.545Z,12
2017-11-06T10:11:49.629Z,12
2017-11-06T10:12:57.717Z,16
2017-11-06T10:14:05.810Z,16
2017-11-06T10:15:13.888Z,16
2017-11-06T10:16:21.974Z,20
2017-11-06T10:17:30.067Z,20
2017-11-06T10:18:38.153Z,24
2017-11-06T10:19:46.244Z,28
2017-11-06T10:20:54.566Z,28
2017-11-06T10:22:02.690Z,32
2017-11-06T10:23:10.773Z,32
2017-11-06T10:24:18.868Z,36
2017-11-06T10:25:26.950Z,36
2017-11-06T10:26:35.035Z,36
2017-11-06T10:27:43.119Z,36
2017-11-06T10:28:51.201Z,40
2017-11-06T10:29:59.285Z,40
2017-11-06T10:31:07.376Z,32
2017-11-06T10:32:15.457Z,24
2017-11-06T10:33:23.544Z,24
2017-11-06T10:34:31.628Z,20
2017-11-06T10:35:39.708Z,24
2017-11-06T10:36:47.808Z,24
2017-11-06T10:37:55.882Z,24
2017-11-06T10:39:03.966Z,20
2017-11-06T10:40:12.064Z,20
2017-11-06T10:41:20.145Z,20
2017-11-06T10:42:28.233Z,24
2017-11-06T10:43:36.319Z,24
2017-11-06T10:44:44.403Z,28
2017-11-06T10:45:52.485Z,32
2017-11-06T10:47:00.575Z,32
2017-11-06T10:48:08.660Z,32
2017-11-06T10:49:16.739Z,32
2017-11-06T10:50:24.834Z,36
2017-11-06T10:51:32.917Z,36
2017-11-06T10:52:41.017Z,36
2017-11-06T10:53:49.102Z,40
2017-11-06T10:54:57.186Z,44
2017-11-06T10:56:05.272Z,52
2017-11-06T10:57:13.361Z,52
2017-11-06T10:58:21.442Z,48
2017-11-06T10:59:29.547Z,52
2017-11-06T11:00:37.617Z,52
2017-11-06T11:01:45.696Z,48
2017-11-06T11:02:53.782Z,40
2017-11-06T11:04:01.872Z,44
2017-11-06T11:05:09.957Z,40
2017-11-06T11:06:18.049Z,52
2017-11-06T11:07:26.133Z,48
2017-11-06T11:08:34.663Z,40
2017-11-06T11:09:42.750Z,32
2017-11-06T11:10:50.832Z,32
2017-11-06T11:11:58.924Z,36
2017-11-06T11:13:07.013Z,40
2017-11-06T11:14:15.098Z,32
2017-11-06T11:15:23.186Z,28
2017-11-06T11:16:31.270Z,32
2017-11-06T11:17:39.352Z,36
2017-11-06T11:18:47.437Z,32
2017-11-06T11:19:55.522Z,28
2017-11-06T11:21:03.608Z,28
2017-11-06T11:22:11.713Z,28
2017-11-06T11:23:19.774Z,32
2017-11-06T11:24:27.867Z,24
2017-11-06T11:25:35.963Z,24
2017-11-06T11:26:44.046Z,20
2017-11-06T11:27:52.140Z,24
2017-11-06T11:29:00.208Z,20
2017-11-06T11:30:08.292Z,20
2017-11-06T11:31:16.377Z,20
2017-11-06T11:32:24.465Z,20
2017-11-06T11:33:32.554Z,16
2017-11-06T11:34:40.643Z,12
2017-11-06T11:35:48.728Z,12
2017-11-06T11:36:56.813Z,12
2017-11-06T11:38:04.890Z,12
2017-11-06T11:39:12.998Z,16
2017-11-06T11:40:21.061Z,16
2017-11-06T11:41:29.145Z,20
2017-11-06T11:42:37.236Z,16
2017-11-06T11:43:45.315Z,20
2017-11-06T11:44:53.402Z,16
2017-11-06T11:46:01.494Z,16
2017-11-06T11:47:09.586Z,20
2017-11-06T11:48:17.690Z,20
2017-11-06T11:49:25.758Z,16
2017-11-06T11:50:33.844Z,20
2017-11-06T11:51:41.937Z,20
2017-11-06T11:52:50.021Z,16
2017-11-06T11:53:58.105Z,16
2017-11-06T11:55:06.191Z,20
2017-11-06T11:56:14.276Z,16
2017-11-06T11:57:22.364Z,20
2017-11-06T11:58:30.447Z,16
2017-11-06T11:59:38.531Z,16
2017-11-06T12:00:46.621Z,12
2017-11-06T12:01:54.708Z,16
2017-11-06T12:03:02.788Z,16
2017-11-06T12:04:10.885Z,16
2017-11-06T12:05:18.983Z,8
2017-11-06T12:06:27.053Z,12
2017-11-06T12:07:35.138Z,8
2017-11-06T12:08:43.221Z,8
2017-11-06T12:09:51.304Z,12
2017-11-06T12:10:59.387Z,8
2017-11-06T12:12:07.471Z,12
2017-11-06T12:13:15.562Z,8
2017-11-06T12:14:23.647Z,12
2017-11-06T12:15:31.728Z,12
2017-11-06T12:16:39.873Z,12
2017-11-06T12:17:47.917Z,12
2017-11-06T12:18:56.046Z,12
2017-11-06T12:20:04.065Z,12
2017-11-06T12:21:12.151Z,12
2017-11-06T12:22:20.233Z,12
2017-11-06T12:23:28.320Z,12
2017-11-06T12:24:36.413Z,12
2017-11-06T12:25:44.489Z,16
2017-11-06T12:26:52.573Z,20
2017-11-06T12:28:00.662Z,24
2017-11-06T12:29:08.745Z,24
2017-11-06T12:30:16.844Z,24
2017-11-06T12:31:24.910Z,28
2017-11-06T12:32:32.993Z,28
2017-11-06T12:33:41.078Z,28
2017-11-06T12:34:49.169Z,28
2017-11-06T12:35:57.255Z,24
2017-11-06T12:37:05.334Z,20
2017-11-06T12:38:13.416Z,20
2017-11-06T12:39:21.501Z,20
2017-11-06T12:40:29.585Z,20
2017-11-06T12:41:37.671Z,20
2017-11-06T12:42:45.757Z,20
2017-11-06T12:43:53.842Z,20
2017-11-06T12:45:01.922Z,20
2017-11-06T12:46:10.009Z,20
2017-11-06T12:47:18.093Z,20
2017-11-06T12:48:26.180Z,20
2017-11-06T12:49:34.258Z,16
2017-11-06T12:50:42.349Z,20
2017-11-06T12:51:50.429Z,16
2017-11-06T12:52:58.515Z,20
2017-11-06T12:54:06.596Z,16
2017-11-06T12:55:14.693Z,12
2017-11-06T12:56:22.766Z,12
2017-11-06T12:57:30.859Z,16
2017-11-06T12:58:38.937Z,12
2017-11-06T12:59:47.031Z,12
2017-11-06T13:00:55.109Z,16
2017-11-06T13:02:03.192Z,16
2017-11-06T13:03:11.277Z,12
2017-11-06T13:04:19.358Z,12
2017-11-06T13:05:27.447Z,16
2017-11-06T13:06:35.530Z,16
2017-11-06T13:07:43.613Z,16
2017-11-06T13:08:51.720Z,20
2017-11-06T13:09:59.783Z,16
2017-11-06T13:11:07.885Z,20
2017-11-06T13:12:15.952Z,20
2017-11-06T13:13:24.036Z,20
2017-11-06T13:14:32.126Z,16
2017-11-06T13:15:40.205Z,16
2017-11-06T13:16:48.305Z,16
2017-11-06T13:17:56.376Z,20
2017-11-06T13:19:04.457Z,16
2017-11-06T13:20:12.542Z,16
2017-11-06T13:21:20.626Z,16
2017-11-06T13:22:28.714Z,16
2017-11-06T13:23:36.805Z,16
2017-11-06T13:24:44.879Z,16
2017-11-06T13:25:52.982Z,16
2017-11-06T13:27:01.049Z,12
2017-11-06T13:28:09.131Z,12
2017-11-06T13:29:17.215Z,12
2017-11-06T13:30:25.301Z,16
2017-11-06T13:31:33.384Z,12
2017-11-06T13:32:41.479Z,12
2017-11-06T13:33:49.554Z,16
2017-11-06T13:34:57.642Z,16
2017-11-06T13:36:05.721Z,16
2017-11-06T13:37:13.825Z,16
2017-11-06T13:38:21.892Z,16
2017-11-06T13:39:29.974Z,12
2017-11-06T13:40:38.062Z,16
2017-11-06T13:41:46.152Z,16
2017-11-06T13:42:54.236Z,16
2017-11-06T13:44:02.319Z,16
2017-11-06T13:45:10.403Z,16
2017-11-06T13:46:18.489Z,16
2017-11-06T13:47:26.572Z,16
2017-11-06T13:48:34.653Z,16
2017-11-06T13:49:42.751Z,12
2017-11-06T13:50:50.830Z,12
2017-11-06T13:51:58.963Z,16
2017-11-06T13:53:06.995Z,16
2017-11-06T13:54:15.085Z,16
2017-11-06T13:55:23.166Z,12
2017-11-06T13:56:31.253Z,12
2017-11-06T13:57:39.335Z,16
2017-11-06T13:58:47.420Z,16
2017-11-06T13:59:55.504Z,12
2017-11-06T14:01:03.587Z,12
2017-11-06T14:02:11.675Z,12
2017-11-06T14:03:19.759Z,8
2017-11-06T14:04:27.847Z,12
2017-11-06T14:05:35.929Z,12
2017-11-06T14:06:44.014Z,8
2017-11-06T14:07:52.099Z,12
2017-11-06T14:09:00.184Z,12
2017-11-06T14:10:08.268Z,12
2017-11-06T14:11:16.352Z,8
2017-11-06T14:12:24.438Z,12
2017-11-06T14:13:32.535Z,12
2017-11-06T14:14:40.605Z,12
2017-11-06T14:15:48.687Z,8
2017-11-06T14:16:57.020Z,12
2017-11-06T14:18:04.856Z,8
2017-11-06T14:19:12.945Z,8
2017-11-06T14:20:21.023Z,8
2017-11-06T14:21:29.110Z,4
2017-11-06T14:22:37.207Z,4
2017-11-06T14:23:45.280Z,8
2017-11-06T14:24:53.361Z,4
2017-11-06T14:26:01.444Z,8
2017-11-06T14:27:09.531Z,8
2017-11-06T14:28:17.617Z,8
2017-11-06T14:29:25.700Z,12
2017-11-06T14:30:33.781Z,8
2017-11-06T14:31:41.871Z,12
2017-11-06T14:32:49.949Z,8
2017-11-06T14:33:58.035Z,8
2017-11-06T14:35:06.117Z,8
2017-11-06T14:36:14.201Z,8
2017-11-06T14:37:22.283Z,8
2017-11-06T14:38:30.421Z,8
2017-11-06T14:39:40.392Z,8
2017-11-06T14:40:48.081Z,4
2017-11-06T14:41:56.161Z,4
2017-11-06T14:43:04.247Z,8
2017-11-06T14:44:12.327Z,4
2017-11-06T14:45:20.411Z,8
2017-11-06T14:46:28.494Z,8
2017-11-06T14:47:36.577Z,4
2017-11-06T14:48:44.669Z,8
2017-11-06T14:49:52.749Z,8
2017-11-06T14:51:00.836Z,4
2017-11-06T14:52:08.915Z,4
2017-11-06T14:53:17.004Z,4
2017-11-06T14:54:25.084Z,8
2017-11-06T14:55:33.168Z,4
2017-11-06T14:56:41.253Z,4
2017-11-06T14:57:49.342Z,4
2017-11-06T14:58:57.429Z,4
2017-11-06T15:00:05.514Z,4
2017-11-06T15:01:13.602Z,0
2017-11-06T15:02:21.861Z,4
2017-11-06T15:03:29.765Z,4
2017-11-06T15:04:37.850Z,4
2017-11-06T15:05:45.930Z,4
2017-11-06T15:06:54.016Z,4
2017-11-06T15:08:02.099Z,4
2017-11-06T15:09:10.201Z,0
2017-11-06T15:10:18.300Z,0
2017-11-06T15:11:26.371Z,4
2017-11-06T15:12:34.454Z,4
2017-11-06T15:13:42.538Z,4
2017-11-06T15:14:50.621Z,4
2017-11-06T15:15:58.726Z,4
2017-11-06T15:17:06.793Z,8
2017-11-06T15:18:14.876Z,4
2017-11-06T15:19:22.959Z,4
2017-11-06T15:20:31.044Z,4
2017-11-06T15:21:39.129Z,4
2017-11-06T15:22:47.219Z,0
2017-11-06T15:23:55.309Z,4
2017-11-06T15:25:03.390Z,4
2017-11-06T15:26:11.469Z,4
2017-11-06T15:27:19.562Z,0
2017-11-06T15:28:27.636Z,0
2017-11-06T15:29:35.740Z,0
2017-11-06T15:30:43.806Z,0
2017-11-06T15:31:52.297Z,0
2017-11-06T15:32:59.990Z,4
2017-11-06T15:34:08.059Z,4
2017-11-06T15:35:16.147Z,4
2017-11-06T15:36:24.223Z,0
2017-11-06T15:37:32.321Z,0
2017-11-06T15:38:40.402Z,0
2017-11-06T15:39:48.483Z,0
2017-11-06T15:40:56.567Z,0
2017-11-06T15:42:04.658Z,0
2017-11-06T15:43:12.748Z,4
2017-11-06T15:44:20.828Z,4
2017-11-06T15:45:28.913Z,4
2017-11-06T15:46:36.996Z,0
2017-11-06T15:47:45.087Z,0
2017-11-06T15:48:53.166Z,0
2017-11-06T15:50:01.345Z,0
2017-11-06T15:51:09.341Z,0
2017-11-06T15:52:17.434Z,0
2017-11-06T15:53:25.517Z,0
2017-11-06T15:54:33.603Z,0
2017-11-06T15:55:41.694Z,0
2017-11-06T15:56:49.783Z,0
2017-11-06T15:57:57.875Z,0
2017-11-06T15:59:05.961Z,0
2017-11-06T16:00:14.044Z,0
2017-11-06T16:01:22.128Z,0
2017-11-06T16:02:30.211Z,0
2017-11-06T16:03:38.298Z,0
2017-11-06T16:04:46.385Z,0
2017-11-06T16:05:54.462Z,0
2017-11-06T16:07:02.550Z,0
2017-11-06T16:08:10.636Z,0
2017-11-06T16:09:18.715Z,0
2017-11-06T16:10:26.894Z,0
2017-11-06T16:11:34.886Z,0
2017-11-06T16:12:42.970Z,0
2017-11-06T16:13:51.055Z,0
2017-11-06T16:14:59.136Z,0
2017-11-06T16:16:07.404Z,0
2017-11-06T16:17:15.484Z,0
2017-11-06T16:18:23.571Z,0
2017-11-06T16:19:31.671Z,0
2017-11-06T16:20:39.737Z,0
2017-11-06T16:21:48.053Z,0
2017-11-06T16:22:55.906Z,0
2017-11-06T16:24:03.990Z,0
2017-11-06T16:25:12.074Z,0
2017-11-06T16:26:20.157Z,0
2017-11-06T16:27:28.238Z,0
2017-11-06T16:28:36.322Z,0
2017-11-06T16:29:44.405Z,0
2017-11-06T16:30:52.487Z,0
2017-11-06T16:32:00.574Z,0
2017-11-06T16:33:08.663Z,0
2017-11-06T16:34:16.970Z,0